createdAt,value
2022-08-26T00:01:45.406Z,17.13
2022-08-26T00:06:38.580Z,17.83
2022-08-26T00:11:35.494Z,18.07
2022-08-26T00:16:30.803Z,16.23
2022-08-26T00:21:23.165Z,17.37
2022-08-26T00:26:16.096Z,16.97
2022-08-26T00:31:10.917Z,18.33
2022-08-26T00:36:05.518Z,21.40
2022-08-26T00:40:58.945Z,21.80
2022-08-26T00:45:59.119Z,19.90
2022-08-26T00:51:09.852Z,21.57
2022-08-26T00:56:26.397Z,20.13
2022-08-26T01:01:19.386Z,19.73
2022-08-26T01:06:16.459Z,19.33
2022-08-26T01:11:12.734Z,19.83
2022-08-26T01:16:08.742Z,19.40
2022-08-26T01:21:49.162Z,18.27
2022-08-26T01:26:43.340Z,19.80
2022-08-26T01:31:42.330Z,23.00
2022-08-26T01:36:34.546Z,21.70
2022-08-26T01:41:29.135Z,22.73
2022-08-26T01:46:23.055Z,22.60
2022-08-26T01:51:17.449Z,21.70
2022-08-26T01:56:12.395Z,22.03
2022-08-26T02:01:06.952Z,20.63
2022-08-26T02:06:09.424Z,20.87
2022-08-26T02:11:02.809Z,22.80
2022-08-26T02:15:55.621Z,21.67
2022-08-26T02:20:51.509Z,22.23
2022-08-26T02:25:59.678Z,21.60
2022-08-26T02:30:51.928Z,21.43
2022-08-26T02:35:45.537Z,20.87
2022-08-26T02:40:41.692Z,20.47
2022-08-26T02:45:35.184Z,22.57
2022-08-26T02:50:28.970Z,21.10
2022-08-26T02:55:21.322Z,22.87
2022-08-26T03:00:17.408Z,21.27
2022-08-26T03:05:12.419Z,24.73
2022-08-26T03:10:08.541Z,22.80
2022-08-26T03:15:01.356Z,22.77
2022-08-26T03:19:57.342Z,21.93
2022-08-26T03:24:49.915Z,20.53
2022-08-26T03:30:01.827Z,22.97
2022-08-26T03:34:56.707Z,24.27
2022-08-26T03:39:49.670Z,21.63
2022-08-26T03:44:42.346Z,21.77
2022-08-26T03:49:35.907Z,20.87
2022-08-26T03:54:28.185Z,20.07
2022-08-26T03:59:20.442Z,24.00
2022-08-26T04:04:15.647Z,24.13
2022-08-26T04:09:11.707Z,22.07
2022-08-26T04:14:17.598Z,19.50
2022-08-26T04:19:14.657Z,22.87
2022-08-26T04:24:12.102Z,20.87
2022-08-26T04:29:08.261Z,19.87
2022-08-26T04:34:01.249Z,19.77
2022-08-26T04:38:53.570Z,29.63
2022-08-26T04:43:49.007Z,19.10
2022-08-26T04:48:41.615Z,18.50
2022-08-26T04:53:33.926Z,18.30
2022-08-26T04:58:27.027Z,17.60
2022-08-26T05:03:20.294Z,18.43
2022-08-26T05:08:15.143Z,19.13
2022-08-26T05:13:11.011Z,18.10
2022-08-26T05:18:06.053Z,28.43
2022-08-26T05:23:00.962Z,21.47
2022-08-26T05:27:53.427Z,19.67
2022-08-26T05:32:52.526Z,18.40
2022-08-26T05:37:47.681Z,18.60
2022-08-26T05:42:40.457Z,20.17
2022-08-26T05:47:32.759Z,18.10
2022-08-26T05:52:25.942Z,23.73
2022-08-26T05:57:18.559Z,16.70
2022-08-26T06:02:10.964Z,16.87
2022-08-26T06:07:05.537Z,16.73
2022-08-26T06:12:01.950Z,18.53
2022-08-26T06:16:54.602Z,17.33
2022-08-26T06:21:54.094Z,16.93
2022-08-26T06:26:56.573Z,16.50
2022-08-26T06:31:49.705Z,14.77
2022-08-26T06:36:43.931Z,14.10
2022-08-26T06:41:41.420Z,12.63
2022-08-26T06:46:44.321Z,11.70
2022-08-26T06:51:38.759Z,12.65
2022-08-26T06:56:36.965Z,11.02
2022-08-26T07:01:35.287Z,10.93
2022-08-26T07:06:28.529Z,11.07
2022-08-26T07:11:21.254Z,12.00
2022-08-26T07:16:16.549Z,11.75
2022-08-26T07:21:12.458Z,12.10
2022-08-26T07:26:07.115Z,11.10
2022-08-26T07:31:10.871Z,12.30
2022-08-26T07:36:04.886Z,11.95
2022-08-26T07:40:58.712Z,12.57
2022-08-26T07:45:50.937Z,12.50
2022-08-26T07:50:49.360Z,13.55
2022-08-26T07:55:43.273Z,10.98
2022-08-26T08:00:35.603Z,11.45
2022-08-26T08:05:33.622Z,11.40
2022-08-26T08:10:27.874Z,10.77
2022-08-26T08:15:25.087Z,10.57
2022-08-26T08:20:17.645Z,10.20
2022-08-26T08:25:12.111Z,8.90
2022-08-26T08:30:06.471Z,9.63
2022-08-26T08:35:00.237Z,9.73
2022-08-26T08:39:53.150Z,8.57
2022-08-26T08:44:52.436Z,9.55
2022-08-26T08:49:45.544Z,8.95
2022-08-26T08:54:38.307Z,10.45
2022-08-26T08:59:38.276Z,9.52
2022-08-26T09:04:30.728Z,8.75
2022-08-26T09:10:01.221Z,9.23
2022-08-26T09:14:58.619Z,8.93
2022-08-26T09:19:54.721Z,8.30
2022-08-26T09:24:49.170Z,9.30
2022-08-26T09:29:45.007Z,8.68
2022-08-26T09:34:56.795Z,8.60
2022-08-26T09:39:49.078Z,9.73
2022-08-26T09:45:04.633Z,9.23
2022-08-26T09:50:17.216Z,9.27
2022-08-26T09:55:23.775Z,11.45
2022-08-26T10:00:27.414Z,10.50
2022-08-26T10:05:38.270Z,9.80
2022-08-26T10:10:37.736Z,8.37
2022-08-26T10:16:01.376Z,9.63
2022-08-26T10:21:07.337Z,9.63
2022-08-26T10:26:19.259Z,9.23
2022-08-26T10:31:30.421Z,9.50
2022-08-26T10:37:15.636Z,9.27
2022-08-26T10:42:09.737Z,9.30
2022-08-26T10:47:21.723Z,9.17
2022-08-26T10:52:29.420Z,6.70
2022-08-26T10:57:40.521Z,6.60
2022-08-26T11:02:50.099Z,5.73
2022-08-26T11:07:47.678Z,5.20
2022-08-26T11:12:42.259Z,6.00
2022-08-26T11:17:46.655Z,4.53
2022-08-26T11:22:39.749Z,4.70
2022-08-26T11:27:41.665Z,4.13
2022-08-26T11:32:40.071Z,5.32
2022-08-26T11:37:40.553Z,4.88
2022-08-26T11:42:37.222Z,5.00
2022-08-26T11:47:32.237Z,5.07
2022-08-26T11:52:25.726Z,5.40
2022-08-26T11:57:18.456Z,5.82
2022-08-26T12:02:17.833Z,3.03
2022-08-26T12:07:10.665Z,3.58
2022-08-26T12:12:19.156Z,5.43
2022-08-26T12:17:17.731Z,3.85
2022-08-26T12:22:33.203Z,3.20
2022-08-26T12:27:32.913Z,6.10
2022-08-26T12:32:31.541Z,3.42
2022-08-26T12:37:27.166Z,4.43
2022-08-26T12:42:20.216Z,4.97
2022-08-26T12:47:30.982Z,5.30
2022-08-26T12:52:51.644Z,4.25
2022-08-26T12:57:44.056Z,4.43
2022-08-26T13:02:39.917Z,4.97
2022-08-26T13:07:32.190Z,5.45
2022-08-26T13:12:32.655Z,4.78
2022-08-26T13:17:26.837Z,5.20
2022-08-26T13:22:24.336Z,4.82
2022-08-26T13:27:20.611Z,4.97
2022-08-26T13:32:15.583Z,4.63
2022-08-26T13:37:08.030Z,5.10
2022-08-26T13:42:00.526Z,4.95
2022-08-26T13:46:52.867Z,4.97
2022-08-26T13:51:45.177Z,6.07
2022-08-26T13:56:37.642Z,5.00
2022-08-26T14:01:31.657Z,5.65
2022-08-26T14:06:25.408Z,5.55
2022-08-26T14:11:18.438Z,5.22
2022-08-26T14:16:23.473Z,3.77
2022-08-26T14:21:15.977Z,4.03
2022-08-26T14:26:11.995Z,4.10
2022-08-26T14:31:24.638Z,4.07
2022-08-26T14:36:29.036Z,4.55
2022-08-26T14:41:23.114Z,4.88
2022-08-26T14:46:16.407Z,4.20
2022-08-26T14:51:08.761Z,4.68
2022-08-26T14:56:01.232Z,4.88
2022-08-26T15:00:53.473Z,5.00
2022-08-26T15:05:48.037Z,4.57
2022-08-26T15:10:40.636Z,4.68
2022-08-26T15:15:32.787Z,5.93
2022-08-26T15:20:25.214Z,4.93
2022-08-26T15:25:18.277Z,4.45
2022-08-26T15:30:12.282Z,5.40
2022-08-26T15:35:08.863Z,5.50
2022-08-26T15:40:01.820Z,5.03
2022-08-26T15:44:55.824Z,6.50
2022-08-26T15:49:48.549Z,5.00
2022-08-26T15:54:41.034Z,5.70
2022-08-26T15:59:34.627Z,7.43
2022-08-26T16:04:27.666Z,4.23
2022-08-26T16:09:24.346Z,4.33
2022-08-26T16:14:17.008Z,5.10
2022-08-26T16:19:09.562Z,5.40
2022-08-26T16:24:01.986Z,5.37
2022-08-26T16:28:54.228Z,4.43
2022-08-26T16:33:46.575Z,4.37
2022-08-26T16:38:40.070Z,4.00
2022-08-26T16:43:32.721Z,4.60
2022-08-26T16:48:25.458Z,5.10
2022-08-26T16:53:19.276Z,4.90
2022-08-26T16:58:13.253Z,5.37
2022-08-26T17:03:05.876Z,5.07
2022-08-26T17:07:59.706Z,5.50
2022-08-26T17:12:52.519Z,4.80
2022-08-26T17:17:44.836Z,5.13
2022-08-26T17:22:44.455Z,4.90
2022-08-26T17:27:37.296Z,5.60
2022-08-26T17:32:30.105Z,5.00
2022-08-26T17:37:22.581Z,4.90
2022-08-26T17:42:15.661Z,4.77
2022-08-26T17:47:08.183Z,4.77
2022-08-26T17:52:01.671Z,5.57
2022-08-26T17:56:54.663Z,4.57
2022-08-26T18:01:49.529Z,4.73
2022-08-26T18:06:44.149Z,4.87
2022-08-26T18:11:36.576Z,4.70
2022-08-26T18:16:31.763Z,4.83
2022-08-26T18:21:25.739Z,4.60
2022-08-26T18:26:25.695Z,5.70
2022-08-26T18:31:18.579Z,5.70
2022-08-26T18:36:37.528Z,5.20
2022-08-26T18:41:32.696Z,5.50
2022-08-26T18:46:27.495Z,5.40
2022-08-26T18:51:24.271Z,6.60
2022-08-26T18:56:18.620Z,5.63
2022-08-26T19:01:12.436Z,6.07
2022-08-26T19:06:05.002Z,6.20
2022-08-26T19:10:59.406Z,5.93
2022-08-26T19:15:52.735Z,8.17
2022-08-26T19:20:46.952Z,7.83
2022-08-26T19:25:53.287Z,6.50
2022-08-26T19:30:52.536Z,5.80
2022-08-26T19:35:47.618Z,7.83
2022-08-26T19:40:43.817Z,4.90
2022-08-26T19:45:36.882Z,4.47
2022-08-26T19:50:32.447Z,4.67
2022-08-26T19:55:26.318Z,4.77
2022-08-26T20:00:23.669Z,38.23
2022-08-26T20:05:24.093Z,6.83
2022-08-26T20:10:21.326Z,5.10
2022-08-26T20:15:14.217Z,4.97
2022-08-26T20:20:33.043Z,4.73
2022-08-26T20:25:26.349Z,6.30
2022-08-26T20:30:18.629Z,5.00
2022-08-26T20:35:13.720Z,5.50
2022-08-26T20:40:09.207Z,6.33
2022-08-26T20:45:02.155Z,6.53
2022-08-26T20:49:54.560Z,8.13
2022-08-26T20:54:47.099Z,7.30
2022-08-26T20:59:39.395Z,7.13
2022-08-26T21:04:32.358Z,8.63
2022-08-26T21:09:26.329Z,8.37
2022-08-26T21:14:20.604Z,7.90
2022-08-26T21:19:15.117Z,7.80
2022-08-26T21:24:07.847Z,8.03
2022-08-26T21:29:01.501Z,7.20
2022-08-26T21:33:55.357Z,8.00
2022-08-26T21:38:48.931Z,7.20
2022-08-26T21:43:43.041Z,7.73
2022-08-26T21:48:35.652Z,7.77
2022-08-26T21:53:28.175Z,7.20
2022-08-26T21:58:20.637Z,7.60
2022-08-26T22:03:13.560Z,8.07
2022-08-26T22:08:05.854Z,8.23
2022-08-26T22:12:58.119Z,8.60
2022-08-26T22:17:50.423Z,8.70
2022-08-26T22:22:42.875Z,7.77
2022-08-26T22:27:40.407Z,6.80
2022-08-26T22:32:35.187Z,7.93
2022-08-26T22:37:27.529Z,9.27
2022-08-26T22:42:19.811Z,8.20
2022-08-26T22:47:12.134Z,8.80
2022-08-26T22:52:04.761Z,8.80
2022-08-26T22:56:57.125Z,8.40
2022-08-26T23:01:50.088Z,7.60
2022-08-26T23:06:47.500Z,8.37
2022-08-26T23:11:43.212Z,7.63
2022-08-26T23:16:39.586Z,6.20
2022-08-26T23:21:32.023Z,7.57
2022-08-26T23:26:25.444Z,6.93
2022-08-26T23:31:17.758Z,6.43
2022-08-26T23:36:13.571Z,6.27
2022-08-26T23:41:09.219Z,7.50
2022-08-26T23:46:01.492Z,7.67
2022-08-26T23:51:12.522Z,8.23
2022-08-26T23:56:04.884Z,7.93
